This is the latest recevied weather packets stored in our database for station/object AA7F. If no packets are shown the sender has not sent any weather packets the latest 10 day(s).
| Time | Temp. | Humidity | Pressure | Rain* | Wind** | Luminosity | Snow |
|---|---|---|---|---|---|---|---|
| 1777622195 | 10.56° C | 66% | 1018 hPa | 0 mm | - | 0 W/m² | - |
| 1777621891 | 10.56° C | 65% | 1017.9 hPa | 0 mm | - | 0 W/m² | - |
| 1777621587 | 10.56° C | 65% | 1017.9 hPa | 0 mm | - | 0 W/m² | - |
| 1777621284 | 10.56° C | 64% | 1017.9 hPa | 0 mm | - | 0 W/m² | - |
| 1777620980 | 10.56° C | 65% | 1017.9 hPa | 0 mm | - | 0 W/m² | - |
| 1777620676 | 10° C | 67% | 1017.7 hPa | 0 mm | - | 0 W/m² | - |
| 1777620372 | 11.11° C | 64% | 1017.9 hPa | 0 mm | - | 0 W/m² | - |
| 1777620070 | 11.11° C | 62% | 1017.8 hPa | 0 mm | - | 0 W/m² | - |
| 1777619766 | 10.56° C | 62% | 1017.8 hPa | 0 mm | - | 0 W/m² | - |
| 1777619461 | 8.89° C | 72% | 1017.7 hPa | 0 mm | - | 0 W/m² | - |
| 1777619156 | 8.89° C | 73% | 1017.7 hPa | 0 mm | - | 0 W/m² | - |
| 1777618851 | 8.89° C | 73% | 1017.6 hPa | 0 mm | - | 0 W/m² | - |
| 1777618550 | 8.89° C | 72% | 1017.6 hPa | 0 mm | - | 0 W/m² | - |
| 1777618247 | 9.44° C | 70% | 1017.8 hPa | 0 mm | - | 0 W/m² | - |
| 1777617944 | 9.44° C | 69% | 1017.5 hPa | 0 mm | - | 0 W/m² | - |
| 1777617640 | 10° C | 68% | 1017.5 hPa | 0 mm | - | 0 W/m² | - |
| 1777617336 | 10° C | 67% | 1017.6 hPa | 0 mm | - | 0 W/m² | - |
| 1777617034 | 10° C | 66% | 1017.8 hPa | 0 mm | - | 0 W/m² | - |
| 1777616733 | 10° C | 65% | 1017.5 hPa | 0 mm | - | 0 W/m² | - |
| 1777616428 | 10° C | 65% | 1017.7 hPa | 0 mm | - | 0 W/m² | - |
| 1777616125 | 11.11° C | 62% | 1017.6 hPa | 0 mm | - | 0 W/m² | - |
| 1777615822 | 11.67° C | 58% | 1017.7 hPa | 0 mm | - | 0 W/m² | - |
| 1777615519 | 11.67° C | 58% | 1017.5 hPa | 0 mm | - | 0 W/m² | - |
| 1777615215 | 11.11° C | 61% | 1017.5 hPa | 0 mm | - | 0 W/m² | - |
| 1777614909 | 11.67° C | 56% | 1017.6 hPa | 0 mm | - | 0 W/m² | - |
* Rain latest hour (hover to see other rain measurements)
** Current wind speed in m/s (hover to see current wind gust speed)